sensor_id;sensor_type;location;lat;lon;timestamp;temperature;humidity
7566;DHT22;3824;48.010;7.832;2022-09-13T00:01:44;16.40;99.90
7566;DHT22;3824;48.010;7.832;2022-09-13T00:04:11;16.30;99.90
7566;DHT22;3824;48.010;7.832;2022-09-13T00:06:38;16.30;99.90
7566;DHT22;3824;48.010;7.832;2022-09-13T00:09:06;16.20;99.90
7566;DHT22;3824;48.010;7.832;2022-09-13T00:11:33;16.20;99.90
7566;DHT22;3824;48.010;7.832;2022-09-13T00:14:00;16.20;99.90
7566;DHT22;3824;48.010;7.832;2022-09-13T00:16:28;16.20;99.90
7566;DHT22;3824;48.010;7.832;2022-09-13T00:18:55;16.20;99.90
7566;DHT22;3824;48.010;7.832;2022-09-13T00:21:23;16.20;99.90
7566;DHT22;3824;48.010;7.832;2022-09-13T00:23:51;16.10;99.90
7566;DHT22;3824;48.010;7.832;2022-09-13T00:26:22;16.10;99.90
7566;DHT22;3824;48.010;7.832;2022-09-13T00:28:50;16.10;99.90
7566;DHT22;3824;48.010;7.832;2022-09-13T00:31:18;16.10;99.90
7566;DHT22;3824;48.010;7.832;2022-09-13T00:33:45;16.10;99.90
7566;DHT22;3824;48.010;7.832;2022-09-13T00:36:12;16.10;99.90
7566;DHT22;3824;48.010;7.832;2022-09-13T00:38:41;16.00;99.90
7566;DHT22;3824;48.010;7.832;2022-09-13T00:41:11;16.00;99.90
7566;DHT22;3824;48.010;7.832;2022-09-13T00:43:48;16.00;99.90
7566;DHT22;3824;48.010;7.832;2022-09-13T00:46:23;16.00;99.90
7566;DHT22;3824;48.010;7.832;2022-09-13T00:48:55;16.00;99.90
7566;DHT22;3824;48.010;7.832;2022-09-13T00:51:23;15.90;99.90
7566;DHT22;3824;48.010;7.832;2022-09-13T00:53:52;15.90;99.90
7566;DHT22;3824;48.010;7.832;2022-09-13T00:56:24;15.90;99.90
7566;DHT22;3824;48.010;7.832;2022-09-13T00:58:57;15.90;99.90
7566;DHT22;3824;48.010;7.832;2022-09-13T01:01:31;15.90;99.90
7566;DHT22;3824;48.010;7.832;2022-09-13T01:04:01;15.80;99.90
7566;DHT22;3824;48.010;7.832;2022-09-13T01:06:31;15.80;99.90
7566;DHT22;3824;48.010;7.832;2022-09-13T01:09:00;15.90;99.90
7566;DHT22;3824;48.010;7.832;2022-09-13T01:11:34;15.70;99.90
7566;DHT22;3824;48.010;7.832;2022-09-13T01:14:07;15.60;99.90
7566;DHT22;3824;48.010;7.832;2022-09-13T01:16:35;15.50;99.90
7566;DHT22;3824;48.010;7.832;2022-09-13T01:19:02;15.50;99.90
7566;DHT22;3824;48.010;7.832;2022-09-13T01:24:59;15.40;99.90
7566;DHT22;3824;48.010;7.832;2022-09-13T01:27:38;15.30;99.90
7566;DHT22;3824;48.010;7.832;2022-09-13T01:30:15;15.30;99.90
7566;DHT22;3824;48.010;7.832;2022-09-13T01:36:12;15.30;99.90
7566;DHT22;3824;48.010;7.832;2022-09-13T01:38:52;15.40;99.90
7566;DHT22;3824;48.010;7.832;2022-09-13T01:44:29;15.40;99.90
7566;DHT22;3824;48.010;7.832;2022-09-13T01:47:02;15.40;99.90
7566;DHT22;3824;48.010;7.832;2022-09-13T01:49:38;15.40;99.90
7566;DHT22;3824;48.010;7.832;2022-09-13T01:52:17;15.40;99.90
7566;DHT22;3824;48.010;7.832;2022-09-13T01:54:52;15.40;99.90
7566;DHT22;3824;48.010;7.832;2022-09-13T01:57:29;15.30;99.90
7566;DHT22;3824;48.010;7.832;2022-09-13T02:00:02;15.30;99.90
7566;DHT22;3824;48.010;7.832;2022-09-13T02:02:33;15.30;99.90
7566;DHT22;3824;48.010;7.832;2022-09-13T02:05:04;15.50;99.90
7566;DHT22;3824;48.010;7.832;2022-09-13T02:07:35;15.40;99.90
7566;DHT22;3824;48.010;7.832;2022-09-13T02:10:08;15.40;99.90
7566;DHT22;3824;48.010;7.832;2022-09-13T02:12:37;15.40;99.90
7566;DHT22;3824;48.010;7.832;2022-09-13T02:15:10;15.40;99.90
7566;DHT22;3824;48.010;7.832;2022-09-13T02:17:43;15.40;99.90
7566;DHT22;3824;48.010;7.832;2022-09-13T02:20:14;15.30;99.90
7566;DHT22;3824;48.010;7.832;2022-09-13T02:22:44;15.20;99.90
7566;DHT22;3824;48.010;7.832;2022-09-13T02:25:17;15.10;99.90
7566;DHT22;3824;48.010;7.832;2022-09-13T02:27:48;15.10;99.90
7566;DHT22;3824;48.010;7.832;2022-09-13T02:30:17;15.00;99.90
7566;DHT22;3824;48.010;7.832;2022-09-13T02:32:49;15.00;99.90
7566;DHT22;3824;48.010;7.832;2022-09-13T02:35:19;15.10;99.90
7566;DHT22;3824;48.010;7.832;2022-09-13T02:37:50;15.00;99.90
7566;DHT22;3824;48.010;7.832;2022-09-13T02:40:26;15.00;99.90
7566;DHT22;3824;48.010;7.832;2022-09-13T02:42:57;15.00;99.90
7566;DHT22;3824;48.010;7.832;2022-09-13T02:45:30;15.00;99.90
7566;DHT22;3824;48.010;7.832;2022-09-13T02:47:59;15.00;99.90
7566;DHT22;3824;48.010;7.832;2022-09-13T02:50:40;15.00;99.90
7566;DHT22;3824;48.010;7.832;2022-09-13T02:53:13;14.90;99.90
7566;DHT22;3824;48.010;7.832;2022-09-13T02:55:52;14.90;99.90
7566;DHT22;3824;48.010;7.832;2022-09-13T02:58:26;14.90;99.90
7566;DHT22;3824;48.010;7.832;2022-09-13T03:00:54;14.90;99.90
7566;DHT22;3824;48.010;7.832;2022-09-13T03:03:23;14.90;99.90
7566;DHT22;3824;48.010;7.832;2022-09-13T03:05:50;14.90;99.90
7566;DHT22;3824;48.010;7.832;2022-09-13T03:08:18;14.80;99.90
7566;DHT22;3824;48.010;7.832;2022-09-13T03:11:01;14.80;99.90
7566;DHT22;3824;48.010;7.832;2022-09-13T03:14:00;14.90;99.90
7566;DHT22;3824;48.010;7.832;2022-09-13T03:16:41;14.80;99.90
7566;DHT22;3824;48.010;7.832;2022-09-13T03:19:24;14.80;99.90
7566;DHT22;3824;48.010;7.832;2022-09-13T03:22:11;14.90;99.90
7566;DHT22;3824;48.010;7.832;2022-09-13T03:24:49;14.80;99.90
7566;DHT22;3824;48.010;7.832;2022-09-13T03:27:25;14.90;99.90
7566;DHT22;3824;48.010;7.832;2022-09-13T03:30:00;14.90;99.90
7566;DHT22;3824;48.010;7.832;2022-09-13T03:32:35;14.90;99.90
7566;DHT22;3824;48.010;7.832;2022-09-13T03:35:11;14.90;99.90
7566;DHT22;3824;48.010;7.832;2022-09-13T03:37:45;15.00;99.90
7566;DHT22;3824;48.010;7.832;2022-09-13T03:40:19;14.90;99.90
7566;DHT22;3824;48.010;7.832;2022-09-13T03:42:51;14.90;99.90
7566;DHT22;3824;48.010;7.832;2022-09-13T03:45:20;14.80;99.90
7566;DHT22;3824;48.010;7.832;2022-09-13T03:47:51;14.80;99.90
7566;DHT22;3824;48.010;7.832;2022-09-13T03:50:21;14.80;99.90
7566;DHT22;3824;48.010;7.832;2022-09-13T03:52:51;14.80;99.90
7566;DHT22;3824;48.010;7.832;2022-09-13T03:55:21;14.70;99.90
7566;DHT22;3824;48.010;7.832;2022-09-13T03:57:48;14.70;99.90
7566;DHT22;3824;48.010;7.832;2022-09-13T04:00:15;14.70;99.90
7566;DHT22;3824;48.010;7.832;2022-09-13T04:02:43;14.70;99.90
7566;DHT22;3824;48.010;7.832;2022-09-13T04:05:10;14.70;99.90
7566;DHT22;3824;48.010;7.832;2022-09-13T04:07:39;14.70;99.90
7566;DHT22;3824;48.010;7.832;2022-09-13T04:10:06;14.60;99.90
7566;DHT22;3824;48.010;7.832;2022-09-13T04:12:34;14.60;99.90
7566;DHT22;3824;48.010;7.832;2022-09-13T04:15:01;14.60;99.90
7566;DHT22;3824;48.010;7.832;2022-09-13T04:17:28;14.60;99.90
7566;DHT22;3824;48.010;7.832;2022-09-13T04:19:54;14.60;99.90
7566;DHT22;3824;48.010;7.832;2022-09-13T04:22:21;14.60;99.90
7566;DHT22;3824;48.010;7.832;2022-09-13T04:24:49;14.60;99.90
7566;DHT22;3824;48.010;7.832;2022-09-13T04:27:17;14.60;99.90
7566;DHT22;3824;48.010;7.832;2022-09-13T04:29:44;14.70;99.90
7566;DHT22;3824;48.010;7.832;2022-09-13T04:32:11;14.70;99.90
7566;DHT22;3824;48.010;7.832;2022-09-13T04:34:37;14.70;99.90
7566;DHT22;3824;48.010;7.832;2022-09-13T04:37:05;14.70;99.90
7566;DHT22;3824;48.010;7.832;2022-09-13T04:39:31;14.70;99.90
7566;DHT22;3824;48.010;7.832;2022-09-13T04:42:00;14.70;99.90
7566;DHT22;3824;48.010;7.832;2022-09-13T04:44:26;14.70;99.90
7566;DHT22;3824;48.010;7.832;2022-09-13T04:46:54;14.70;99.90
7566;DHT22;3824;48.010;7.832;2022-09-13T04:49:21;14.70;99.90
7566;DHT22;3824;48.010;7.832;2022-09-13T04:51:48;14.70;99.90
7566;DHT22;3824;48.010;7.832;2022-09-13T04:54:15;14.70;99.90
7566;DHT22;3824;48.010;7.832;2022-09-13T04:56:42;14.70;99.90
7566;DHT22;3824;48.010;7.832;2022-09-13T04:59:11;14.70;99.90
7566;DHT22;3824;48.010;7.832;2022-09-13T05:01:38;14.70;99.90
7566;DHT22;3824;48.010;7.832;2022-09-13T05:04:06;14.60;99.90
7566;DHT22;3824;48.010;7.832;2022-09-13T05:06:33;14.70;99.90
7566;DHT22;3824;48.010;7.832;2022-09-13T05:09:00;14.70;99.90
7566;DHT22;3824;48.010;7.832;2022-09-13T05:11:27;14.80;99.90
7566;DHT22;3824;48.010;7.832;2022-09-13T05:13:56;14.70;99.90
7566;DHT22;3824;48.010;7.832;2022-09-13T05:16:26;14.70;99.90
7566;DHT22;3824;48.010;7.832;2022-09-13T05:18:54;14.70;99.90
7566;DHT22;3824;48.010;7.832;2022-09-13T05:21:22;14.80;99.90
7566;DHT22;3824;48.010;7.832;2022-09-13T05:23:50;14.80;99.90
7566;DHT22;3824;48.010;7.832;2022-09-13T05:26:17;14.70;99.90
7566;DHT22;3824;48.010;7.832;2022-09-13T05:28:44;14.70;99.90
7566;DHT22;3824;48.010;7.832;2022-09-13T05:31:13;14.70;99.90
7566;DHT22;3824;48.010;7.832;2022-09-13T05:33:42;14.80;99.90
7566;DHT22;3824;48.010;7.832;2022-09-13T05:36:09;14.80;99.90
7566;DHT22;3824;48.010;7.832;2022-09-13T05:38:36;14.90;99.90
7566;DHT22;3824;48.010;7.832;2022-09-13T05:41:04;14.90;99.90
7566;DHT22;3824;48.010;7.832;2022-09-13T05:43:33;15.00;99.90
7566;DHT22;3824;48.010;7.832;2022-09-13T05:46:01;15.10;99.90
7566;DHT22;3824;48.010;7.832;2022-09-13T05:48:28;15.10;99.90
7566;DHT22;3824;48.010;7.832;2022-09-13T05:51:03;15.20;99.90
7566;DHT22;3824;48.010;7.832;2022-09-13T05:53:30;15.20;99.90
7566;DHT22;3824;48.010;7.832;2022-09-13T05:55:57;15.30;99.90
7566;DHT22;3824;48.010;7.832;2022-09-13T05:58:24;15.30;99.90
7566;DHT22;3824;48.010;7.832;2022-09-13T06:00:52;15.40;99.90
7566;DHT22;3824;48.010;7.832;2022-09-13T06:03:19;15.50;99.90
7566;DHT22;3824;48.010;7.832;2022-09-13T06:05:46;15.50;99.90
7566;DHT22;3824;48.010;7.832;2022-09-13T06:08:15;15.60;99.90
7566;DHT22;3824;48.010;7.832;2022-09-13T06:10:41;15.60;99.90
7566;DHT22;3824;48.010;7.832;2022-09-13T06:13:08;15.70;99.90
7566;DHT22;3824;48.010;7.832;2022-09-13T06:15:35;15.60;99.90
7566;DHT22;3824;48.010;7.832;2022-09-13T06:18:02;15.80;99.90
7566;DHT22;3824;48.010;7.832;2022-09-13T06:20:29;15.70;99.90
7566;DHT22;3824;48.010;7.832;2022-09-13T06:22:55;15.80;99.90
7566;DHT22;3824;48.010;7.832;2022-09-13T06:25:23;15.80;99.90
7566;DHT22;3824;48.010;7.832;2022-09-13T06:27:50;15.80;99.90
7566;DHT22;3824;48.010;7.832;2022-09-13T06:30:17;15.90;99.90
7566;DHT22;3824;48.010;7.832;2022-09-13T06:32:44;16.00;99.90
7566;DHT22;3824;48.010;7.832;2022-09-13T06:35:11;16.10;99.90
7566;DHT22;3824;48.010;7.832;2022-09-13T06:37:37;16.20;99.90
7566;DHT22;3824;48.010;7.832;2022-09-13T06:40:05;16.30;99.90
7566;DHT22;3824;48.010;7.832;2022-09-13T06:42:34;16.40;99.90
7566;DHT22;3824;48.010;7.832;2022-09-13T06:45:01;16.40;99.90
7566;DHT22;3824;48.010;7.832;2022-09-13T06:47:28;16.50;99.90
7566;DHT22;3824;48.010;7.832;2022-09-13T06:49:55;16.60;99.90
7566;DHT22;3824;48.010;7.832;2022-09-13T06:52:22;16.70;99.90
7566;DHT22;3824;48.010;7.832;2022-09-13T06:54:49;16.90;99.90
7566;DHT22;3824;48.010;7.832;2022-09-13T06:57:16;17.00;99.90
7566;DHT22;3824;48.010;7.832;2022-09-13T06:59:44;17.10;99.90
7566;DHT22;3824;48.010;7.832;2022-09-13T07:02:11;17.30;99.90
7566;DHT22;3824;48.010;7.832;2022-09-13T07:04:39;17.50;99.90
7566;DHT22;3824;48.010;7.832;2022-09-13T07:07:06;17.80;99.90
7566;DHT22;3824;48.010;7.832;2022-09-13T07:09:32;18.10;99.90
7566;DHT22;3824;48.010;7.832;2022-09-13T07:11:59;18.40;99.90
7566;DHT22;3824;48.010;7.832;2022-09-13T07:14:27;18.60;99.90
7566;DHT22;3824;48.010;7.832;2022-09-13T07:16:56;18.70;99.90
7566;DHT22;3824;48.010;7.832;2022-09-13T07:19:24;18.60;99.90
7566;DHT22;3824;48.010;7.832;2022-09-13T07:21:53;18.60;99.90
7566;DHT22;3824;48.010;7.832;2022-09-13T07:24:20;18.60;99.90
7566;DHT22;3824;48.010;7.832;2022-09-13T07:26:48;18.80;99.90
7566;DHT22;3824;48.010;7.832;2022-09-13T07:29:17;18.90;99.90
7566;DHT22;3824;48.010;7.832;2022-09-13T07:31:46;19.20;99.90
7566;DHT22;3824;48.010;7.832;2022-09-13T07:34:15;19.30;99.90
7566;DHT22;3824;48.010;7.832;2022-09-13T07:36:42;19.40;99.90
7566;DHT22;3824;48.010;7.832;2022-09-13T07:39:11;19.50;99.90
7566;DHT22;3824;48.010;7.832;2022-09-13T07:41:39;19.50;99.90
7566;DHT22;3824;48.010;7.832;2022-09-13T07:44:06;19.50;99.90
7566;DHT22;3824;48.010;7.832;2022-09-13T07:46:34;19.60;99.90
7566;DHT22;3824;48.010;7.832;2022-09-13T07:49:04;19.60;99.90
7566;DHT22;3824;48.010;7.832;2022-09-13T07:51:34;19.70;99.90
7566;DHT22;3824;48.010;7.832;2022-09-13T07:54:04;19.90;99.90
7566;DHT22;3824;48.010;7.832;2022-09-13T07:56:33;20.10;99.90
7566;DHT22;3824;48.010;7.832;2022-09-13T07:59:02;20.20;99.90
7566;DHT22;3824;48.010;7.832;2022-09-13T08:01:33;20.30;99.90
7566;DHT22;3824;48.010;7.832;2022-09-13T08:04:02;20.40;99.90
7566;DHT22;3824;48.010;7.832;2022-09-13T08:06:30;20.50;99.90
7566;DHT22;3824;48.010;7.832;2022-09-13T08:08:59;20.70;99.90
7566;DHT22;3824;48.010;7.832;2022-09-13T08:11:28;20.80;99.90
7566;DHT22;3824;48.010;7.832;2022-09-13T08:13:56;21.00;99.90
7566;DHT22;3824;48.010;7.832;2022-09-13T08:16:24;21.10;99.90
7566;DHT22;3824;48.010;7.832;2022-09-13T08:18:54;21.20;99.90
7566;DHT22;3824;48.010;7.832;2022-09-13T08:21:22;21.30;99.90
7566;DHT22;3824;48.010;7.832;2022-09-13T08:23:53;21.50;99.90
7566;DHT22;3824;48.010;7.832;2022-09-13T08:26:21;21.60;99.90
7566;DHT22;3824;48.010;7.832;2022-09-13T08:28:48;21.70;99.90
7566;DHT22;3824;48.010;7.832;2022-09-13T08:31:16;21.80;99.90
7566;DHT22;3824;48.010;7.832;2022-09-13T08:33:46;21.90;99.90
7566;DHT22;3824;48.010;7.832;2022-09-13T08:36:14;22.00;99.90
7566;DHT22;3824;48.010;7.832;2022-09-13T08:38:45;22.10;99.90
7566;DHT22;3824;48.010;7.832;2022-09-13T08:44:19;22.20;99.90
7566;DHT22;3824;48.010;7.832;2022-09-13T08:46:52;22.40;99.90
7566;DHT22;3824;48.010;7.832;2022-09-13T08:49:22;22.50;99.90
7566;DHT22;3824;48.010;7.832;2022-09-13T08:51:54;22.60;99.90
7566;DHT22;3824;48.010;7.832;2022-09-13T08:54:22;22.70;99.90
7566;DHT22;3824;48.010;7.832;2022-09-13T08:56:52;22.80;99.90
7566;DHT22;3824;48.010;7.832;2022-09-13T08:59:31;22.90;99.90
7566;DHT22;3824;48.010;7.832;2022-09-13T09:02:09;23.00;99.90
7566;DHT22;3824;48.010;7.832;2022-09-13T09:04:43;23.10;99.90
7566;DHT22;3824;48.010;7.832;2022-09-13T09:07:14;23.30;99.90
7566;DHT22;3824;48.010;7.832;2022-09-13T09:09:45;23.30;99.90
7566;DHT22;3824;48.010;7.832;2022-09-13T09:12:18;23.40;99.90
7566;DHT22;3824;48.010;7.832;2022-09-13T09:14:58;23.50;99.90
7566;DHT22;3824;48.010;7.832;2022-09-13T09:17:30;23.50;99.90
7566;DHT22;3824;48.010;7.832;2022-09-13T09:20:05;23.50;99.90
7566;DHT22;3824;48.010;7.832;2022-09-13T09:22:34;23.50;99.90
7566;DHT22;3824;48.010;7.832;2022-09-13T09:25:02;23.30;99.90
7566;DHT22;3824;48.010;7.832;2022-09-13T09:27:29;23.30;99.90
7566;DHT22;3824;48.010;7.832;2022-09-13T09:29:59;23.30;99.90
7566;DHT22;3824;48.010;7.832;2022-09-13T09:32:51;23.30;99.90
7566;DHT22;3824;48.010;7.832;2022-09-13T09:35:45;23.40;99.90
7566;DHT22;3824;48.010;7.832;2022-09-13T09:38:30;23.30;99.90
7566;DHT22;3824;48.010;7.832;2022-09-13T09:41:00;23.40;99.90
7566;DHT22;3824;48.010;7.832;2022-09-13T09:43:32;23.40;99.90
7566;DHT22;3824;48.010;7.832;2022-09-13T09:46:03;23.50;99.90
7566;DHT22;3824;48.010;7.832;2022-09-13T09:48:37;23.60;99.90
7566;DHT22;3824;48.010;7.832;2022-09-13T09:51:07;23.70;99.90
7566;DHT22;3824;48.010;7.832;2022-09-13T09:53:38;23.80;99.90
7566;DHT22;3824;48.010;7.832;2022-09-13T09:56:20;23.90;99.90
7566;DHT22;3824;48.010;7.832;2022-09-13T09:58:49;24.00;99.90
7566;DHT22;3824;48.010;7.832;2022-09-13T10:01:22;24.20;99.90
7566;DHT22;3824;48.010;7.832;2022-09-13T10:03:58;24.40;99.90
7566;DHT22;3824;48.010;7.832;2022-09-13T10:06:26;24.50;99.90
7566;DHT22;3824;48.010;7.832;2022-09-13T10:08:57;24.70;99.90
7566;DHT22;3824;48.010;7.832;2022-09-13T10:11:38;24.90;99.90
7566;DHT22;3824;48.010;7.832;2022-09-13T10:14:05;25.10;99.90
7566;DHT22;3824;48.010;7.832;2022-09-13T10:16:33;25.30;99.90
7566;DHT22;3824;48.010;7.832;2022-09-13T10:19:22;25.50;99.90
7566;DHT22;3824;48.010;7.832;2022-09-13T10:21:59;25.70;99.90
7566;DHT22;3824;48.010;7.832;2022-09-13T10:24:27;25.80;99.90
7566;DHT22;3824;48.010;7.832;2022-09-13T10:26:55;25.90;99.90
7566;DHT22;3824;48.010;7.832;2022-09-13T10:29:23;26.00;99.90
7566;DHT22;3824;48.010;7.832;2022-09-13T10:31:53;26.20;99.90
7566;DHT22;3824;48.010;7.832;2022-09-13T10:34:24;26.20;99.90
7566;DHT22;3824;48.010;7.832;2022-09-13T10:36:55;26.30;99.90
7566;DHT22;3824;48.010;7.832;2022-09-13T10:39:24;26.30;99.90
7566;DHT22;3824;48.010;7.832;2022-09-13T10:41:54;26.40;99.90
7566;DHT22;3824;48.010;7.832;2022-09-13T10:44:32;26.50;99.90
7566;DHT22;3824;48.010;7.832;2022-09-13T10:47:05;26.60;99.90
7566;DHT22;3824;48.010;7.832;2022-09-13T10:49:37;26.70;99.90
7566;DHT22;3824;48.010;7.832;2022-09-13T10:52:24;26.70;99.90
7566;DHT22;3824;48.010;7.832;2022-09-13T10:54:52;26.70;99.90
7566;DHT22;3824;48.010;7.832;2022-09-13T10:57:34;26.70;99.90
7566;DHT22;3824;48.010;7.832;2022-09-13T11:00:04;26.70;99.90
7566;DHT22;3824;48.010;7.832;2022-09-13T11:02:56;26.70;99.90
7566;DHT22;3824;48.010;7.832;2022-09-13T11:05:29;26.70;99.90
7566;DHT22;3824;48.010;7.832;2022-09-13T11:11:10;26.80;99.10
7566;DHT22;3824;48.010;7.832;2022-09-13T11:13:55;26.90;98.70
7566;DHT22;3824;48.010;7.832;2022-09-13T11:16:40;26.90;99.20
7566;DHT22;3824;48.010;7.832;2022-09-13T11:19:28;27.00;99.80
7566;DHT22;3824;48.010;7.832;2022-09-13T11:22:16;27.20;99.70
7566;DHT22;3824;48.010;7.832;2022-09-13T11:25:10;27.30;99.40
7566;DHT22;3824;48.010;7.832;2022-09-13T11:27:46;27.40;98.70
7566;DHT22;3824;48.010;7.832;2022-09-13T11:30:17;27.50;98.60
7566;DHT22;3824;48.010;7.832;2022-09-13T11:32:55;27.60;99.00
7566;DHT22;3824;48.010;7.832;2022-09-13T11:35:36;27.30;98.90
7566;DHT22;3824;48.010;7.832;2022-09-13T11:38:18;27.90;99.00
7566;DHT22;3824;48.010;7.832;2022-09-13T11:40:53;28.00;99.20
7566;DHT22;3824;48.010;7.832;2022-09-13T11:43:35;28.00;99.00
7566;DHT22;3824;48.010;7.832;2022-09-13T11:46:11;28.00;98.70
7566;DHT22;3824;48.010;7.832;2022-09-13T11:51:38;28.00;98.20
7566;DHT22;3824;48.010;7.832;2022-09-13T11:54:21;28.00;98.00
7566;DHT22;3824;48.010;7.832;2022-09-13T11:56:54;27.90;97.70
7566;DHT22;3824;48.010;7.832;2022-09-13T11:59:32;27.80;97.60
7566;DHT22;3824;48.010;7.832;2022-09-13T12:02:04;27.80;97.40
7566;DHT22;3824;48.010;7.832;2022-09-13T12:04:41;27.90;97.60
7566;DHT22;3824;48.010;7.832;2022-09-13T12:07:29;28.00;97.50
7566;DHT22;3824;48.010;7.832;2022-09-13T12:10:02;28.10;96.90
7566;DHT22;3824;48.010;7.832;2022-09-13T12:12:33;28.20;96.50
7566;DHT22;3824;48.010;7.832;2022-09-13T12:15:05;28.30;96.50
7566;DHT22;3824;48.010;7.832;2022-09-13T12:17:37;28.50;96.60
7566;DHT22;3824;48.010;7.832;2022-09-13T12:20:10;28.50;96.80
7566;DHT22;3824;48.010;7.832;2022-09-13T12:22:41;28.50;97.10
7566;DHT22;3824;48.010;7.832;2022-09-13T12:25:18;28.50;96.70
7566;DHT22;3824;48.010;7.832;2022-09-13T12:27:50;28.60;96.40
7566;DHT22;3824;48.010;7.832;2022-09-13T12:30:20;28.50;96.20
7566;DHT22;3824;48.010;7.832;2022-09-13T12:32:48;28.50;96.00
7566;DHT22;3824;48.010;7.832;2022-09-13T12:35:21;28.40;96.10
7566;DHT22;3824;48.010;7.832;2022-09-13T12:38:11;28.40;96.10
7566;DHT22;3824;48.010;7.832;2022-09-13T12:41:01;28.30;96.50
7566;DHT22;3824;48.010;7.832;2022-09-13T12:43:58;28.30;96.90
7566;DHT22;3824;48.010;7.832;2022-09-13T12:47:01;28.30;97.40
7566;DHT22;3824;48.010;7.832;2022-09-13T12:49:47;28.30;97.50
7566;DHT22;3824;48.010;7.832;2022-09-13T12:52:29;28.20;97.50
7566;DHT22;3824;48.010;7.832;2022-09-13T12:55:35;28.20;97.60
7566;DHT22;3824;48.010;7.832;2022-09-13T12:58:28;28.10;97.50
7566;DHT22;3824;48.010;7.832;2022-09-13T13:01:07;28.00;97.50
7566;DHT22;3824;48.010;7.832;2022-09-13T13:03:46;27.90;97.70
7566;DHT22;3824;48.010;7.832;2022-09-13T13:06:28;27.90;97.80
7566;DHT22;3824;48.010;7.832;2022-09-13T13:09:00;28.00;97.50
7566;DHT22;3824;48.010;7.832;2022-09-13T13:11:41;28.00;97.30
7566;DHT22;3824;48.010;7.832;2022-09-13T13:14:28;28.10;97.20
7566;DHT22;3824;48.010;7.832;2022-09-13T13:19:56;28.20;96.40
7566;DHT22;3824;48.010;7.832;2022-09-13T13:22:48;28.30;96.60
7566;DHT22;3824;48.010;7.832;2022-09-13T13:25:33;28.40;96.60
7566;DHT22;3824;48.010;7.832;2022-09-13T13:31:09;28.50;96.50
7566;DHT22;3824;48.010;7.832;2022-09-13T13:33:45;28.40;97.10
7566;DHT22;3824;48.010;7.832;2022-09-13T13:36:23;28.40;97.00
7566;DHT22;3824;48.010;7.832;2022-09-13T13:38:50;28.50;97.10
7566;DHT22;3824;48.010;7.832;2022-09-13T13:41:37;28.50;97.50
7566;DHT22;3824;48.010;7.832;2022-09-13T13:50:27;28.80;96.70
7566;DHT22;3824;48.010;7.832;2022-09-13T13:52:56;28.70;97.00
7566;DHT22;3824;48.010;7.832;2022-09-13T13:55:42;28.70;96.50
7566;DHT22;3824;48.010;7.832;2022-09-13T13:58:29;28.60;96.50
7566;DHT22;3824;48.010;7.832;2022-09-13T14:00:59;28.50;96.70
7566;DHT22;3824;48.010;7.832;2022-09-13T14:03:48;28.50;96.80
7566;DHT22;3824;48.010;7.832;2022-09-13T14:06:23;28.40;96.70
7566;DHT22;3824;48.010;7.832;2022-09-13T14:09:01;28.30;96.80
7566;DHT22;3824;48.010;7.832;2022-09-13T14:11:40;28.20;96.90
7566;DHT22;3824;48.010;7.832;2022-09-13T14:14:27;28.10;96.90
7566;DHT22;3824;48.010;7.832;2022-09-13T14:17:23;28.00;96.60
7566;DHT22;3824;48.010;7.832;2022-09-13T14:19:58;27.90;96.40
7566;DHT22;3824;48.010;7.832;2022-09-13T14:22:28;27.80;96.80
7566;DHT22;3824;48.010;7.832;2022-09-13T14:24:56;27.80;97.00
7566;DHT22;3824;48.010;7.832;2022-09-13T14:27:26;27.80;97.30
7566;DHT22;3824;48.010;7.832;2022-09-13T14:29:56;27.70;97.40
7566;DHT22;3824;48.010;7.832;2022-09-13T14:32:25;27.80;97.70
7566;DHT22;3824;48.010;7.832;2022-09-13T14:34:56;27.80;97.60
7566;DHT22;3824;48.010;7.832;2022-09-13T14:37:26;27.90;97.50
7566;DHT22;3824;48.010;7.832;2022-09-13T14:39:57;27.90;97.50
7566;DHT22;3824;48.010;7.832;2022-09-13T14:42:25;27.90;97.80
7566;DHT22;3824;48.010;7.832;2022-09-13T14:44:52;27.90;98.20
7566;DHT22;3824;48.010;7.832;2022-09-13T14:47:23;27.90;98.30
7566;DHT22;3824;48.010;7.832;2022-09-13T14:49:56;27.90;98.40
7566;DHT22;3824;48.010;7.832;2022-09-13T14:52:28;27.90;98.30
7566;DHT22;3824;48.010;7.832;2022-09-13T14:55:00;28.00;98.20
7566;DHT22;3824;48.010;7.832;2022-09-13T14:57:31;28.00;98.20
7566;DHT22;3824;48.010;7.832;2022-09-13T15:00:03;28.10;98.20
7566;DHT22;3824;48.010;7.832;2022-09-13T15:02:35;28.10;98.10
7566;DHT22;3824;48.010;7.832;2022-09-13T15:05:06;28.10;97.90
7566;DHT22;3824;48.010;7.832;2022-09-13T15:07:38;28.10;97.40
7566;DHT22;3824;48.010;7.832;2022-09-13T15:10:18;28.00;97.20
7566;DHT22;3824;48.010;7.832;2022-09-13T15:12:52;28.00;97.20
7566;DHT22;3824;48.010;7.832;2022-09-13T15:15:30;28.00;97.30
7566;DHT22;3824;48.010;7.832;2022-09-13T15:17:59;27.90;97.00
7566;DHT22;3824;48.010;7.832;2022-09-13T15:20:29;27.80;97.00
7566;DHT22;3824;48.010;7.832;2022-09-13T15:22:57;27.70;97.10
7566;DHT22;3824;48.010;7.832;2022-09-13T15:25:27;27.70;97.20
7566;DHT22;3824;48.010;7.832;2022-09-13T15:27:55;27.70;97.30
7566;DHT22;3824;48.010;7.832;2022-09-13T15:30:25;27.70;97.40
7566;DHT22;3824;48.010;7.832;2022-09-13T15:33:14;27.70;97.40
7566;DHT22;3824;48.010;7.832;2022-09-13T15:35:44;27.70;97.30
7566;DHT22;3824;48.010;7.832;2022-09-13T15:38:18;27.70;97.30
7566;DHT22;3824;48.010;7.832;2022-09-13T15:40:58;27.70;97.10
7566;DHT22;3824;48.010;7.832;2022-09-13T15:43:25;27.70;97.30
7566;DHT22;3824;48.010;7.832;2022-09-13T15:45:52;27.80;97.30
7566;DHT22;3824;48.010;7.832;2022-09-13T15:48:25;27.80;97.50
7566;DHT22;3824;48.010;7.832;2022-09-13T15:51:04;27.90;97.80
7566;DHT22;3824;48.010;7.832;2022-09-13T15:53:32;28.10;97.70
7566;DHT22;3824;48.010;7.832;2022-09-13T15:56:02;28.20;97.60
7566;DHT22;3824;48.010;7.832;2022-09-13T15:58:31;28.30;97.50
7566;DHT22;3824;48.010;7.832;2022-09-13T16:00:58;28.30;97.30
7566;DHT22;3824;48.010;7.832;2022-09-13T16:03:25;28.40;97.10
7566;DHT22;3824;48.010;7.832;2022-09-13T16:05:52;28.30;97.00
7566;DHT22;3824;48.010;7.832;2022-09-13T16:08:19;28.30;97.20
7566;DHT22;3824;48.010;7.832;2022-09-13T16:10:46;28.20;97.10
7566;DHT22;3824;48.010;7.832;2022-09-13T16:13:14;28.10;97.10
7566;DHT22;3824;48.010;7.832;2022-09-13T16:15:41;28.00;97.30
7566;DHT22;3824;48.010;7.832;2022-09-13T16:18:09;27.80;97.30
7566;DHT22;3824;48.010;7.832;2022-09-13T16:20:36;27.70;97.40
7566;DHT22;3824;48.010;7.832;2022-09-13T16:23:02;27.60;97.80
7566;DHT22;3824;48.010;7.832;2022-09-13T16:25:29;27.50;98.10
7566;DHT22;3824;48.010;7.832;2022-09-13T16:27:56;27.40;98.20
7566;DHT22;3824;48.010;7.832;2022-09-13T16:30:25;27.30;98.30
7566;DHT22;3824;48.010;7.832;2022-09-13T16:32:55;27.20;98.40
7566;DHT22;3824;48.010;7.832;2022-09-13T16:35:23;27.10;98.60
7566;DHT22;3824;48.010;7.832;2022-09-13T16:37:51;27.10;98.80
7566;DHT22;3824;48.010;7.832;2022-09-13T16:40:18;27.00;98.90
7566;DHT22;3824;48.010;7.832;2022-09-13T16:42:45;26.90;99.10
7566;DHT22;3824;48.010;7.832;2022-09-13T16:45:12;26.80;99.30
7566;DHT22;3824;48.010;7.832;2022-09-13T16:47:41;26.80;99.50
7566;DHT22;3824;48.010;7.832;2022-09-13T16:50:08;26.70;99.60
7566;DHT22;3824;48.010;7.832;2022-09-13T16:52:36;26.70;99.80
7566;DHT22;3824;48.010;7.832;2022-09-13T16:55:03;26.60;99.80
7566;DHT22;3824;48.010;7.832;2022-09-13T16:57:30;26.60;99.90
7566;DHT22;3824;48.010;7.832;2022-09-13T16:59:57;26.50;99.90
7566;DHT22;3824;48.010;7.832;2022-09-13T17:02:24;26.40;99.90
7566;DHT22;3824;48.010;7.832;2022-09-13T17:04:53;26.40;99.90